Thursday, April 26, 2018, 4:47 PM EDT
Back to Local

KJYO, Leesburg / Godfrey

Location: Leesburg, VA, United States Lat: 39.083
Local Time: 4:47 PM EDT (20:47 GMT) Lon: -77.567
Time Zone: US/Eastern Elev: 390 ft

Show me the last for .
Show Decoded

2018-04-26 16:15 METAR KJYO 262015Z AUTO 30006KT 10SM CLR 21/03 A2985 RMK AO2 =
2018-04-26 15:55 METAR KJYO 261955Z AUTO 31010KT 300V360 10SM CLR 20/04 A2985 RMK AO2 =
2018-04-26 15:35 METAR KJYO 261935Z AUTO 31011KT 10SM CLR 20/04 A2986 RMK AO2 =
2018-04-26 15:15 METAR KJYO 261915Z AUTO 30007KT 10SM CLR 20/04 A2986 RMK AO2 =
2018-04-26 14:55 METAR KJYO 261855Z AUTO 32005KT 260V350 10SM CLR 20/05 A2987 RMK AO2 =
2018-04-26 14:35 METAR KJYO 261835Z AUTO 33009G18KT 10SM CLR 20/05 A2987 RMK AO2 =
2018-04-26 14:15 METAR KJYO 261815Z AUTO 30005G17KT 10SM CLR 19/06 A2987 RMK AO2 =
2018-04-26 13:55 METAR KJYO 261755Z AUTO 31014G17KT 10SM CLR 18/06 A2987 RMK AO2 =
2018-04-26 13:35 METAR KJYO 261735Z AUTO 32009G15KT 280V360 10SM CLR 18/06 A2988 RMK AO2 =
2018-04-26 13:15 METAR KJYO 261715Z AUTO 33012G15KT 10SM CLR 18/06 A2988 RMK AO2 =
2018-04-26 12:55 METAR KJYO 261655Z AUTO 32012G23KT 10SM CLR 17/06 A2989 RMK AO2 =
2018-04-26 12:35 METAR KJYO 261635Z AUTO 32011G18KT 10SM CLR 17/06 A2990 RMK AO2 =
2018-04-26 12:15 METAR KJYO 261615Z AUTO 28013G18KT 10SM CLR 16/06 A2990 RMK AO2 =
2018-04-26 11:55 METAR KJYO 261555Z AUTO 32014G19KT 10SM CLR 16/06 A2990 RMK AO2 =
2018-04-26 11:35 METAR KJYO 261535Z AUTO 28013G17KT 10SM CLR 16/05 A2990 RMK AO2 =
2018-04-26 11:15 METAR KJYO 261515Z AUTO 30014G18KT 10SM CLR 15/06 A2991 RMK AO2 =
2018-04-26 10:55 METAR KJYO 261455Z AUTO 30007G10KT 10SM CLR 15/06 A2990 RMK AO2 =
2018-04-26 10:35 METAR KJYO 261435Z AUTO 29015G20KT 10SM CLR 14/06 A2990 RMK AO2 =
2018-04-26 10:15 METAR KJYO 261415Z AUTO 30014G19KT 270V330 10SM CLR 14/06 A2990 RMK AO2 =
2018-04-26 09:55 METAR KJYO 261355Z AUTO 29014G18KT 10SM CLR 13/06 A2990 RMK AO2 =
2018-04-26 09:35 METAR KJYO 261335Z AUTO 28012G17KT 10SM CLR 12/06 A2990 RMK AO2 =
2018-04-26 09:15 METAR KJYO 261315Z AUTO 30011G16KT 10SM CLR 12/05 A2990 RMK AO2 =
2018-04-26 08:55 METAR KJYO 261255Z AUTO 30009G16KT 10SM CLR 12/05 A2990 RMK AO2 =
2018-04-26 08:35 METAR KJYO 261235Z AUTO 32013G21KT 10SM CLR 11/05 A2990 RMK AO2 =
2018-04-26 08:15 METAR KJYO 261215Z AUTO 30016KT 10SM CLR 11/06 A2989 RMK AO2 =
2018-04-26 07:55 METAR KJYO 261155Z AUTO 29014KT 10SM CLR 10/05 A2989 RMK AO2 =
2018-04-26 07:35 METAR KJYO 261135Z AUTO 29011G17KT 10SM CLR 10/05 A2988 RMK AO2 =
2018-04-26 07:15 METAR KJYO 261115Z AUTO 29013G16KT 10SM CLR 09/05 A2987 RMK AO2 =
2018-04-26 06:55 METAR KJYO 261055Z AUTO 29012KT 10SM CLR 08/05 A2985 RMK AO2 =
2018-04-26 06:35 METAR KJYO 261035Z AUTO 29012KT 10SM CLR 08/05 A2985 RMK AO2 =
2018-04-26 06:15 METAR KJYO 261015Z AUTO 29010KT 10SM CLR 08/05 A2984 RMK AO2 =
2018-04-26 05:55 METAR KJYO 260955Z AUTO 30008KT 10SM CLR 08/05 A2984 RMK AO2 =
2018-04-26 05:35 METAR KJYO 260935Z AUTO 30009KT 10SM CLR 08/05 A2984 RMK AO2 =
2018-04-26 05:15 METAR KJYO 260915Z AUTO 29010KT 10SM CLR 08/05 A2984 RMK AO2 =
2018-04-26 04:55 METAR KJYO 260855Z AUTO 30010KT 10SM CLR 08/05 A2985 RMK AO2 =
2018-04-26 04:35 METAR KJYO 260835Z AUTO 29009KT 10SM CLR 08/05 A2985 RMK AO2 =
2018-04-26 04:15 METAR KJYO 260815Z AUTO 29010KT 10SM CLR 09/06 A2985 RMK AO2 =
2018-04-26 03:55 METAR KJYO 260755Z AUTO 31011G14KT 10SM CLR 10/05 A2984 RMK AO2 =
2018-04-26 03:35 METAR KJYO 260735Z AUTO 31013KT 10SM CLR 10/05 A2983 RMK AO2 =
2018-04-26 03:15 METAR KJYO 260715Z AUTO 31013G18KT 10SM CLR 10/05 A2981 RMK AO2 =
2018-04-26 02:55 METAR KJYO 260655Z AUTO 02005G17KT 10SM CLR 11/05 A2981 RMK AO2 =
2018-04-26 02:35 METAR KJYO 260635Z AUTO 33007G16KT 280V020 10SM CLR 11/06 A2980 RMK AO2 =
2018-04-26 02:15 METAR KJYO 260615Z AUTO 35005G16KT 10SM SCT038 12/06 A2980 RMK AO2 =
2018-04-26 01:55 METAR KJYO 260555Z AUTO 35006KT 10SM BKN038 12/07 A2980 RMK AO2 =
2018-04-26 01:35 METAR KJYO 260535Z AUTO 33008KT 10SM SCT038 13/08 A2980 RMK AO2 =
2018-04-26 01:15 METAR KJYO 260515Z AUTO 33012G15KT 10SM SCT033 BKN041 13/09 A2979 RMK AO2 =
2018-04-26 00:55 METAR KJYO 260455Z AUTO 30011G15KT 10SM BKN043 OVC048 14/09 A2978 RMK AO2 =
2018-04-26 00:35 METAR KJYO 260435Z AUTO 32009G14KT 10SM OVC047 14/09 A2978 RMK AO2 =
2018-04-26 00:15 METAR KJYO 260415Z AUTO 32009G17KT 290V350 10SM SCT035 SCT041 OVC049 15/10 A2977
                 RMK AO2 =
2018-04-25 23:55 METAR KJYO 260355Z AUTO 32011G17KT 10SM SCT033 OVC047 15/11 A2977 RMK AO2 =
2018-04-25 23:35 METAR KJYO 260335Z AUTO 32009KT 10SM SCT034 BKN049 14/11 A2977 RMK AO2 =
2018-04-25 23:15 METAR KJYO 260315Z AUTO 34005KT 10SM SCT047 14/11 A2977 RMK AO2 =
2018-04-25 22:55 METAR KJYO 260255Z AUTO 32004KT 10SM CLR 14/11 A2977 RMK AO2 =
2018-04-25 22:35 METAR KJYO 260235Z AUTO 31005KT 10SM CLR 13/11 A2976 RMK AO2 LTG DSNT SE =
2018-04-25 22:15 METAR KJYO 260215Z AUTO 32008KT 10SM SCT046 14/11 A2976 RMK AO2 =
2018-04-25 21:55 METAR KJYO 260155Z AUTO 31008KT 10SM BKN048 BKN110 15/11 A2976 RMK AO2 =
2018-04-25 21:35 METAR KJYO 260135Z AUTO 33011G14KT 10SM OVC050 16/11 A2976 RMK AO2 =
2018-04-25 21:15 METAR KJYO 260115Z AUTO 31008KT 10SM BKN050 OVC110 15/13 A2976 RMK AO2 =
2018-04-25 20:55 METAR KJYO 260055Z AUTO 31005KT 10SM SCT040 BKN047 OVC110 15/13 A2975 RMK AO2 =
2018-04-25 20:35 METAR KJYO 260035Z AUTO 30004KT 10SM BKN050 OVC100 15/13 A2974 RMK AO2 =
2018-04-25 20:15 METAR KJYO 260015Z AUTO 34003KT 10SM SCT050 OVC090 15/13 A2974 RMK AO2 =
2018-04-25 19:55 METAR KJYO 252355Z AUTO 34004KT 10SM OVC090 15/15 A2973 RMK AO2 LTG DSNT SE =
2018-04-25 19:35 METAR KJYO 252335Z AUTO 00000KT 10SM SCT041 BKN070 OVC080 15/15 A2972 RMK AO2 =
2018-04-25 19:15 METAR KJYO 252315Z AUTO 00000KT 10SM SCT041 OVC049 15/15 A2971 RMK AO2 =
2018-04-25 18:55 METAR KJYO 252255Z AUTO 00000KT 10SM SCT036 BKN047 OVC090 15/15 A2971 RMK AO2 =
2018-04-25 18:35 METAR KJYO 252235Z AUTO 00000KT 10SM SCT044 BKN090 OVC110 16/16 A2971 RMK AO2 =
2018-04-25 18:15 METAR KJYO 252215Z AUTO 00000KT 10SM SCT047 SCT090 OVC110 15/15 A2970 RMK AO2 =
2018-04-25 17:55 METAR KJYO 252155Z AUTO 02003KT 10SM SCT044 BKN080 OVC110 15/15 A2971 RMK AO2 =
2018-04-25 17:35 METAR KJYO 252135Z AUTO 00000KT 10SM SCT006 BKN044 OVC080 15/15 A2970 RMK AO2 =
2018-04-25 17:15 METAR KJYO 252115Z AUTO 05004KT 10SM SCT006 OVC041 14/14 A2971 RMK AO2 =
2018-04-25 16:55 METAR KJYO 252055Z AUTO 04004KT 10SM SCT006 BKN037 OVC070 14/14 A2971 RMK AO2
                 LTG DSNT E P0004 =

Support USWX by starting your Amazon purchase here.